sensor_id;sensor_type;location;lat;lon;timestamp;temperature;humidity
11005;DHT22;5555;59.622;16.556;2022-11-15T00:00:21;6.50;99.90
11005;DHT22;5555;59.622;16.556;2022-11-15T00:02:47;6.50;99.90
11005;DHT22;5555;59.622;16.556;2022-11-15T00:05:12;6.50;99.90
11005;DHT22;5555;59.622;16.556;2022-11-15T00:07:38;6.50;99.90
11005;DHT22;5555;59.622;16.556;2022-11-15T00:10:04;6.50;99.90
11005;DHT22;5555;59.622;16.556;2022-11-15T00:12:30;6.50;99.90
11005;DHT22;5555;59.622;16.556;2022-11-15T00:14:56;6.50;99.90
11005;DHT22;5555;59.622;16.556;2022-11-15T00:17:21;6.50;99.90
11005;DHT22;5555;59.622;16.556;2022-11-15T00:19:47;6.50;99.90
11005;DHT22;5555;59.622;16.556;2022-11-15T00:22:12;6.50;99.90
11005;DHT22;5555;59.622;16.556;2022-11-15T00:24:38;6.50;99.90
11005;DHT22;5555;59.622;16.556;2022-11-15T00:27:04;6.50;99.90
11005;DHT22;5555;59.622;16.556;2022-11-15T00:29:29;6.40;99.90
11005;DHT22;5555;59.622;16.556;2022-11-15T00:31:55;6.40;99.90
11005;DHT22;5555;59.622;16.556;2022-11-15T00:34:20;6.40;99.90
11005;DHT22;5555;59.622;16.556;2022-11-15T00:36:46;6.40;99.90
11005;DHT22;5555;59.622;16.556;2022-11-15T00:39:12;6.30;99.90
11005;DHT22;5555;59.622;16.556;2022-11-15T00:41:37;6.30;99.90
11005;DHT22;5555;59.622;16.556;2022-11-15T00:44:03;6.30;99.90
11005;DHT22;5555;59.622;16.556;2022-11-15T00:46:29;6.30;99.90
11005;DHT22;5555;59.622;16.556;2022-11-15T00:48:54;6.30;99.90
11005;DHT22;5555;59.622;16.556;2022-11-15T00:51:20;6.30;99.90
11005;DHT22;5555;59.622;16.556;2022-11-15T00:53:45;6.30;99.90
11005;DHT22;5555;59.622;16.556;2022-11-15T00:56:11;6.20;99.90
11005;DHT22;5555;59.622;16.556;2022-11-15T00:58:37;6.20;99.90
11005;DHT22;5555;59.622;16.556;2022-11-15T01:01:20;6.10;99.90
11005;DHT22;5555;59.622;16.556;2022-11-15T01:03:46;6.00;99.90
11005;DHT22;5555;59.622;16.556;2022-11-15T01:06:12;6.00;99.90
11005;DHT22;5555;59.622;16.556;2022-11-15T01:08:39;5.90;99.90
11005;DHT22;5555;59.622;16.556;2022-11-15T01:11:07;5.90;99.90
11005;DHT22;5555;59.622;16.556;2022-11-15T01:13:34;5.90;99.90
11005;DHT22;5555;59.622;16.556;2022-11-15T01:16:06;5.90;99.90
11005;DHT22;5555;59.622;16.556;2022-11-15T01:18:32;5.90;99.90
11005;DHT22;5555;59.622;16.556;2022-11-15T01:20:58;5.80;99.90
11005;DHT22;5555;59.622;16.556;2022-11-15T01:23:23;5.80;99.90
11005;DHT22;5555;59.622;16.556;2022-11-15T01:25:49;5.80;99.90
11005;DHT22;5555;59.622;16.556;2022-11-15T01:28:15;5.80;99.90
11005;DHT22;5555;59.622;16.556;2022-11-15T01:30:40;5.80;99.90
11005;DHT22;5555;59.622;16.556;2022-11-15T01:33:06;5.80;99.90
11005;DHT22;5555;59.622;16.556;2022-11-15T01:35:31;5.80;99.90
11005;DHT22;5555;59.622;16.556;2022-11-15T01:37:57;5.80;99.90
11005;DHT22;5555;59.622;16.556;2022-11-15T01:40:23;5.80;99.90
11005;DHT22;5555;59.622;16.556;2022-11-15T01:42:48;5.80;99.90
11005;DHT22;5555;59.622;16.556;2022-11-15T01:45:15;5.70;99.90
11005;DHT22;5555;59.622;16.556;2022-11-15T01:47:46;5.70;99.90
11005;DHT22;5555;59.622;16.556;2022-11-15T01:50:24;5.70;99.90
11005;DHT22;5555;59.622;16.556;2022-11-15T01:52:53;5.60;99.90
11005;DHT22;5555;59.622;16.556;2022-11-15T01:55:21;5.50;99.90
11005;DHT22;5555;59.622;16.556;2022-11-15T01:57:51;5.50;99.90
11005;DHT22;5555;59.622;16.556;2022-11-15T02:00:18;5.50;99.90
11005;DHT22;5555;59.622;16.556;2022-11-15T02:02:43;5.40;99.90
11005;DHT22;5555;59.622;16.556;2022-11-15T02:05:09;5.40;99.90
11005;DHT22;5555;59.622;16.556;2022-11-15T02:07:36;5.40;99.90
11005;DHT22;5555;59.622;16.556;2022-11-15T02:10:17;5.30;99.90
11005;DHT22;5555;59.622;16.556;2022-11-15T02:12:42;5.20;99.90
11005;DHT22;5555;59.622;16.556;2022-11-15T02:15:09;5.20;99.90
11005;DHT22;5555;59.622;16.556;2022-11-15T02:17:58;5.20;99.90
11005;DHT22;5555;59.622;16.556;2022-11-15T02:20:30;5.20;99.90
11005;DHT22;5555;59.622;16.556;2022-11-15T02:28:51;5.10;99.90
11005;DHT22;5555;59.622;16.556;2022-11-15T02:34:10;5.00;99.90
11005;DHT22;5555;59.622;16.556;2022-11-15T02:36:51;4.90;99.90
11005;DHT22;5555;59.622;16.556;2022-11-15T02:42:04;4.90;99.90
11005;DHT22;5555;59.622;16.556;2022-11-15T02:44:53;4.90;99.90
11005;DHT22;5555;59.622;16.556;2022-11-15T02:47:22;4.80;99.90
11005;DHT22;5555;59.622;16.556;2022-11-15T02:49:53;4.80;99.90
11005;DHT22;5555;59.622;16.556;2022-11-15T02:52:22;4.80;99.90
11005;DHT22;5555;59.622;16.556;2022-11-15T02:54:55;4.80;99.90
11005;DHT22;5555;59.622;16.556;2022-11-15T03:00:35;4.80;99.90
11005;DHT22;5555;59.622;16.556;2022-11-15T03:09:30;4.80;99.90
11005;DHT22;5555;59.622;16.556;2022-11-15T03:11:38;4.80;99.90
11005;DHT22;5555;59.622;16.556;2022-11-15T03:14:21;4.80;99.90
11005;DHT22;5555;59.622;16.556;2022-11-15T03:19:51;4.80;99.90
11005;DHT22;5555;59.622;16.556;2022-11-15T03:22:21;4.80;99.90
11005;DHT22;5555;59.622;16.556;2022-11-15T03:24:52;4.80;99.90
11005;DHT22;5555;59.622;16.556;2022-11-15T03:27:25;4.80;99.90
11005;DHT22;5555;59.622;16.556;2022-11-15T03:30:02;4.80;99.90
11005;DHT22;5555;59.622;16.556;2022-11-15T03:32:31;4.80;99.90
11005;DHT22;5555;59.622;16.556;2022-11-15T03:35:10;4.80;99.90
11005;DHT22;5555;59.622;16.556;2022-11-15T03:37:44;4.80;99.90
11005;DHT22;5555;59.622;16.556;2022-11-15T03:40:11;4.80;99.90
11005;DHT22;5555;59.622;16.556;2022-11-15T03:42:46;4.80;99.90
11005;DHT22;5555;59.622;16.556;2022-11-15T03:45:23;4.80;99.90
11005;DHT22;5555;59.622;16.556;2022-11-15T03:48:01;4.80;99.90
11005;DHT22;5555;59.622;16.556;2022-11-15T03:50:28;4.70;99.90
11005;DHT22;5555;59.622;16.556;2022-11-15T03:52:55;4.80;99.90
11005;DHT22;5555;59.622;16.556;2022-11-15T03:55:21;4.80;99.90
11005;DHT22;5555;59.622;16.556;2022-11-15T03:57:52;4.80;99.90
11005;DHT22;5555;59.622;16.556;2022-11-15T04:00:18;4.90;99.90
11005;DHT22;5555;59.622;16.556;2022-11-15T04:02:44;4.90;99.90
11005;DHT22;5555;59.622;16.556;2022-11-15T04:05:09;4.90;99.90
11005;DHT22;5555;59.622;16.556;2022-11-15T04:07:35;4.90;99.90
11005;DHT22;5555;59.622;16.556;2022-11-15T04:10:00;4.90;99.90
11005;DHT22;5555;59.622;16.556;2022-11-15T04:12:30;4.90;99.90
11005;DHT22;5555;59.622;16.556;2022-11-15T04:15:07;4.90;99.90
11005;DHT22;5555;59.622;16.556;2022-11-15T04:17:35;4.90;99.90
11005;DHT22;5555;59.622;16.556;2022-11-15T04:20:07;4.90;99.90
11005;DHT22;5555;59.622;16.556;2022-11-15T04:22:59;5.00;99.90
11005;DHT22;5555;59.622;16.556;2022-11-15T04:25:44;5.00;99.90
11005;DHT22;5555;59.622;16.556;2022-11-15T04:28:10;5.00;99.90
11005;DHT22;5555;59.622;16.556;2022-11-15T04:30:37;4.90;99.90
11005;DHT22;5555;59.622;16.556;2022-11-15T04:33:03;5.00;99.90
11005;DHT22;5555;59.622;16.556;2022-11-15T04:35:28;4.90;99.90
11005;DHT22;5555;59.622;16.556;2022-11-15T04:37:55;5.00;99.90
11005;DHT22;5555;59.622;16.556;2022-11-15T04:40:21;5.00;99.90
11005;DHT22;5555;59.622;16.556;2022-11-15T04:42:47;5.00;99.90
11005;DHT22;5555;59.622;16.556;2022-11-15T04:45:13;5.00;99.90
11005;DHT22;5555;59.622;16.556;2022-11-15T04:47:38;5.00;99.90
11005;DHT22;5555;59.622;16.556;2022-11-15T04:50:05;5.00;99.90
11005;DHT22;5555;59.622;16.556;2022-11-15T04:52:30;5.10;99.90
11005;DHT22;5555;59.622;16.556;2022-11-15T04:54:56;5.10;99.90
11005;DHT22;5555;59.622;16.556;2022-11-15T04:57:22;5.00;99.90
11005;DHT22;5555;59.622;16.556;2022-11-15T04:59:47;5.00;99.90
11005;DHT22;5555;59.622;16.556;2022-11-15T05:02:13;5.10;99.90
11005;DHT22;5555;59.622;16.556;2022-11-15T05:04:39;5.10;99.90
11005;DHT22;5555;59.622;16.556;2022-11-15T05:07:05;5.10;99.90
11005;DHT22;5555;59.622;16.556;2022-11-15T05:09:31;5.10;99.90
11005;DHT22;5555;59.622;16.556;2022-11-15T05:11:56;5.10;99.90
11005;DHT22;5555;59.622;16.556;2022-11-15T05:14:22;5.10;99.90
11005;DHT22;5555;59.622;16.556;2022-11-15T05:16:48;5.10;99.90
11005;DHT22;5555;59.622;16.556;2022-11-15T05:19:14;5.10;99.90
11005;DHT22;5555;59.622;16.556;2022-11-15T05:21:39;5.20;99.90
11005;DHT22;5555;59.622;16.556;2022-11-15T05:24:05;5.20;99.90
11005;DHT22;5555;59.622;16.556;2022-11-15T05:26:31;5.20;99.90
11005;DHT22;5555;59.622;16.556;2022-11-15T05:28:58;5.20;99.90
11005;DHT22;5555;59.622;16.556;2022-11-15T05:31:25;5.30;99.90
11005;DHT22;5555;59.622;16.556;2022-11-15T05:33:51;5.30;99.90
11005;DHT22;5555;59.622;16.556;2022-11-15T05:38:58;5.40;99.90
11005;DHT22;5555;59.622;16.556;2022-11-15T05:44:01;5.40;99.90
11005;DHT22;5555;59.622;16.556;2022-11-15T05:46:28;5.50;99.90
11005;DHT22;5555;59.622;16.556;2022-11-15T05:48:55;5.50;99.90
11005;DHT22;5555;59.622;16.556;2022-11-15T05:51:22;5.50;99.90
11005;DHT22;5555;59.622;16.556;2022-11-15T05:53:49;5.50;99.90
11005;DHT22;5555;59.622;16.556;2022-11-15T05:56:16;5.50;99.90
11005;DHT22;5555;59.622;16.556;2022-11-15T05:58:42;5.50;99.90
11005;DHT22;5555;59.622;16.556;2022-11-15T06:01:08;5.60;99.90
11005;DHT22;5555;59.622;16.556;2022-11-15T06:03:34;5.60;99.90
11005;DHT22;5555;59.622;16.556;2022-11-15T06:06:00;5.60;99.90
11005;DHT22;5555;59.622;16.556;2022-11-15T06:08:25;5.60;99.90
11005;DHT22;5555;59.622;16.556;2022-11-15T06:10:51;5.70;99.90
11005;DHT22;5555;59.622;16.556;2022-11-15T06:13:16;5.80;99.90
11005;DHT22;5555;59.622;16.556;2022-11-15T06:15:42;5.80;99.90
11005;DHT22;5555;59.622;16.556;2022-11-15T06:18:08;5.80;99.90
11005;DHT22;5555;59.622;16.556;2022-11-15T06:20:33;5.80;99.90
11005;DHT22;5555;59.622;16.556;2022-11-15T06:23:00;5.90;99.90
11005;DHT22;5555;59.622;16.556;2022-11-15T06:25:27;5.90;99.90
11005;DHT22;5555;59.622;16.556;2022-11-15T06:27:53;6.00;99.90
11005;DHT22;5555;59.622;16.556;2022-11-15T06:30:20;6.00;99.90
11005;DHT22;5555;59.622;16.556;2022-11-15T06:32:46;6.10;99.90
11005;DHT22;5555;59.622;16.556;2022-11-15T06:35:11;6.10;99.90
11005;DHT22;5555;59.622;16.556;2022-11-15T06:37:37;6.10;99.90
11005;DHT22;5555;59.622;16.556;2022-11-15T06:40:03;6.10;99.90
11005;DHT22;5555;59.622;16.556;2022-11-15T06:42:29;6.10;99.90
11005;DHT22;5555;59.622;16.556;2022-11-15T06:44:54;6.10;99.90
11005;DHT22;5555;59.622;16.556;2022-11-15T06:47:20;6.10;99.90
11005;DHT22;5555;59.622;16.556;2022-11-15T06:49:46;6.10;99.90
11005;DHT22;5555;59.622;16.556;2022-11-15T06:52:11;6.10;99.90
11005;DHT22;5555;59.622;16.556;2022-11-15T06:54:37;6.10;99.90
11005;DHT22;5555;59.622;16.556;2022-11-15T06:57:04;6.10;99.90
11005;DHT22;5555;59.622;16.556;2022-11-15T06:59:30;6.10;99.90
11005;DHT22;5555;59.622;16.556;2022-11-15T07:01:55;6.10;99.90
11005;DHT22;5555;59.622;16.556;2022-11-15T07:04:21;6.10;99.90
11005;DHT22;5555;59.622;16.556;2022-11-15T07:06:47;6.10;99.90
11005;DHT22;5555;59.622;16.556;2022-11-15T07:09:14;6.00;99.90
11005;DHT22;5555;59.622;16.556;2022-11-15T07:11:40;6.10;99.90
11005;DHT22;5555;59.622;16.556;2022-11-15T07:14:06;6.00;99.90
11005;DHT22;5555;59.622;16.556;2022-11-15T07:16:31;6.10;99.90
11005;DHT22;5555;59.622;16.556;2022-11-15T07:18:57;6.00;99.90
11005;DHT22;5555;59.622;16.556;2022-11-15T07:21:23;6.00;99.90
11005;DHT22;5555;59.622;16.556;2022-11-15T07:23:48;6.00;99.90
11005;DHT22;5555;59.622;16.556;2022-11-15T07:26:14;6.00;99.90
11005;DHT22;5555;59.622;16.556;2022-11-15T07:28:39;6.10;99.90
11005;DHT22;5555;59.622;16.556;2022-11-15T07:31:07;6.10;99.90
11005;DHT22;5555;59.622;16.556;2022-11-15T07:33:34;6.00;99.90
11005;DHT22;5555;59.622;16.556;2022-11-15T07:36:01;6.00;99.90
11005;DHT22;5555;59.622;16.556;2022-11-15T07:38:28;6.00;99.90
11005;DHT22;5555;59.622;16.556;2022-11-15T07:41:02;6.00;99.90
11005;DHT22;5555;59.622;16.556;2022-11-15T07:43:28;6.00;99.90
11005;DHT22;5555;59.622;16.556;2022-11-15T07:45:55;6.10;99.90
11005;DHT22;5555;59.622;16.556;2022-11-15T07:48:22;6.00;99.90
11005;DHT22;5555;59.622;16.556;2022-11-15T07:50:48;6.00;99.90
11005;DHT22;5555;59.622;16.556;2022-11-15T07:53:14;6.00;99.90
11005;DHT22;5555;59.622;16.556;2022-11-15T07:55:40;6.00;99.90
11005;DHT22;5555;59.622;16.556;2022-11-15T07:58:09;6.00;99.90
11005;DHT22;5555;59.622;16.556;2022-11-15T08:00:36;6.00;99.90
11005;DHT22;5555;59.622;16.556;2022-11-15T08:03:12;6.10;99.90
11005;DHT22;5555;59.622;16.556;2022-11-15T08:05:39;6.10;99.90
11005;DHT22;5555;59.622;16.556;2022-11-15T08:08:06;6.10;99.90
11005;DHT22;5555;59.622;16.556;2022-11-15T08:10:32;6.20;99.90
11005;DHT22;5555;59.622;16.556;2022-11-15T08:13:04;6.20;99.90
11005;DHT22;5555;59.622;16.556;2022-11-15T08:15:31;6.20;99.90
11005;DHT22;5555;59.622;16.556;2022-11-15T08:17:59;6.20;99.90
11005;DHT22;5555;59.622;16.556;2022-11-15T08:20:27;6.30;99.90
11005;DHT22;5555;59.622;16.556;2022-11-15T08:23:00;6.20;99.90
11005;DHT22;5555;59.622;16.556;2022-11-15T08:25:27;6.30;99.90
11005;DHT22;5555;59.622;16.556;2022-11-15T08:27:58;6.30;99.90
11005;DHT22;5555;59.622;16.556;2022-11-15T08:30:24;6.30;99.90
11005;DHT22;5555;59.622;16.556;2022-11-15T08:32:51;6.30;99.90
11005;DHT22;5555;59.622;16.556;2022-11-15T08:35:19;6.30;99.90
11005;DHT22;5555;59.622;16.556;2022-11-15T08:37:44;6.30;99.90
11005;DHT22;5555;59.622;16.556;2022-11-15T08:40:10;6.30;99.90
11005;DHT22;5555;59.622;16.556;2022-11-15T08:42:36;6.30;99.90
11005;DHT22;5555;59.622;16.556;2022-11-15T08:45:02;6.30;99.90
11005;DHT22;5555;59.622;16.556;2022-11-15T08:47:28;6.30;99.90
11005;DHT22;5555;59.622;16.556;2022-11-15T08:49:54;6.30;99.90
11005;DHT22;5555;59.622;16.556;2022-11-15T08:52:20;6.40;99.90
11005;DHT22;5555;59.622;16.556;2022-11-15T08:54:45;6.40;99.90
11005;DHT22;5555;59.622;16.556;2022-11-15T08:57:11;6.40;99.90
11005;DHT22;5555;59.622;16.556;2022-11-15T08:59:37;6.40;99.90
11005;DHT22;5555;59.622;16.556;2022-11-15T09:02:03;6.40;99.90
11005;DHT22;5555;59.622;16.556;2022-11-15T09:04:29;6.40;99.90
11005;DHT22;5555;59.622;16.556;2022-11-15T09:06:55;6.50;99.90
11005;DHT22;5555;59.622;16.556;2022-11-15T09:09:21;6.50;99.90
11005;DHT22;5555;59.622;16.556;2022-11-15T09:11:46;6.50;99.90
11005;DHT22;5555;59.622;16.556;2022-11-15T09:14:12;6.50;99.90
11005;DHT22;5555;59.622;16.556;2022-11-15T09:16:38;6.50;99.90
11005;DHT22;5555;59.622;16.556;2022-11-15T09:19:04;6.50;99.90
11005;DHT22;5555;59.622;16.556;2022-11-15T09:21:30;6.60;99.90
11005;DHT22;5555;59.622;16.556;2022-11-15T09:23:56;6.60;99.90
11005;DHT22;5555;59.622;16.556;2022-11-15T09:26:22;6.60;99.90
11005;DHT22;5555;59.622;16.556;2022-11-15T09:28:47;6.60;99.90
11005;DHT22;5555;59.622;16.556;2022-11-15T09:31:13;6.70;99.90
11005;DHT22;5555;59.622;16.556;2022-11-15T09:33:39;6.70;99.90
11005;DHT22;5555;59.622;16.556;2022-11-15T09:36:07;6.70;99.90
11005;DHT22;5555;59.622;16.556;2022-11-15T09:38:34;6.70;99.90
11005;DHT22;5555;59.622;16.556;2022-11-15T09:44:52;6.60;99.90
11005;DHT22;5555;59.622;16.556;2022-11-15T09:47:40;6.70;99.90
11005;DHT22;5555;59.622;16.556;2022-11-15T09:50:12;6.70;99.90
11005;DHT22;5555;59.622;16.556;2022-11-15T09:52:39;6.70;99.90
11005;DHT22;5555;59.622;16.556;2022-11-15T09:55:10;6.60;99.90
11005;DHT22;5555;59.622;16.556;2022-11-15T09:57:45;6.70;99.90
11005;DHT22;5555;59.622;16.556;2022-11-15T10:05:19;6.80;99.90
11005;DHT22;5555;59.622;16.556;2022-11-15T10:10:45;6.80;99.90
11005;DHT22;5555;59.622;16.556;2022-11-15T10:13:41;6.70;99.90
11005;DHT22;5555;59.622;16.556;2022-11-15T10:16:28;6.70;99.90
11005;DHT22;5555;59.622;16.556;2022-11-15T10:19:23;6.80;99.90
11005;DHT22;5555;59.622;16.556;2022-11-15T10:22:18;6.80;99.90
11005;DHT22;5555;59.622;16.556;2022-11-15T10:24:47;6.90;99.90
11005;DHT22;5555;59.622;16.556;2022-11-15T10:27:17;6.90;99.90
11005;DHT22;5555;59.622;16.556;2022-11-15T10:32:12;6.80;99.90
11005;DHT22;5555;59.622;16.556;2022-11-15T10:34:38;6.70;99.90
11005;DHT22;5555;59.622;16.556;2022-11-15T10:37:05;6.70;99.90
11005;DHT22;5555;59.622;16.556;2022-11-15T10:39:30;6.80;99.90
11005;DHT22;5555;59.622;16.556;2022-11-15T10:41:56;6.80;99.90
11005;DHT22;5555;59.622;16.556;2022-11-15T10:44:30;6.80;99.90
11005;DHT22;5555;59.622;16.556;2022-11-15T10:49:26;6.80;99.90
11005;DHT22;5555;59.622;16.556;2022-11-15T10:57:35;6.90;99.90
11005;DHT22;5555;59.622;16.556;2022-11-15T11:00:22;7.00;99.90
11005;DHT22;5555;59.622;16.556;2022-11-15T11:03:04;7.00;99.90
11005;DHT22;5555;59.622;16.556;2022-11-15T11:05:40;7.00;99.90
11005;DHT22;5555;59.622;16.556;2022-11-15T11:10:55;7.30;99.90
11005;DHT22;5555;59.622;16.556;2022-11-15T11:13:23;7.50;99.90
11005;DHT22;5555;59.622;16.556;2022-11-15T11:18:32;7.40;99.90
11005;DHT22;5555;59.622;16.556;2022-11-15T11:21:01;7.40;99.90
11005;DHT22;5555;59.622;16.556;2022-11-15T11:31:58;7.00;99.90
11005;DHT22;5555;59.622;16.556;2022-11-15T11:34:34;7.00;99.90
11005;DHT22;5555;59.622;16.556;2022-11-15T11:40:07;7.00;99.90
11005;DHT22;5555;59.622;16.556;2022-11-15T11:42:54;6.90;99.90
11005;DHT22;5555;59.622;16.556;2022-11-15T11:51:07;6.80;99.90
11005;DHT22;5555;59.622;16.556;2022-11-15T11:53:45;6.90;99.90
11005;DHT22;5555;59.622;16.556;2022-11-15T11:56:25;6.90;99.90
11005;DHT22;5555;59.622;16.556;2022-11-15T11:58:54;6.90;99.90
11005;DHT22;5555;59.622;16.556;2022-11-15T12:01:26;6.90;99.90
11005;DHT22;5555;59.622;16.556;2022-11-15T12:03:56;6.90;99.90
11005;DHT22;5555;59.622;16.556;2022-11-15T12:06:31;6.80;99.90
11005;DHT22;5555;59.622;16.556;2022-11-15T12:09:11;6.90;99.90
11005;DHT22;5555;59.622;16.556;2022-11-15T12:11:48;6.90;99.90
11005;DHT22;5555;59.622;16.556;2022-11-15T12:14:30;6.90;99.90
11005;DHT22;5555;59.622;16.556;2022-11-15T12:16:57;6.90;99.90
11005;DHT22;5555;59.622;16.556;2022-11-15T12:19:24;6.90;99.90
11005;DHT22;5555;59.622;16.556;2022-11-15T12:24:51;6.80;99.90
11005;DHT22;5555;59.622;16.556;2022-11-15T12:29:58;6.90;99.90
11005;DHT22;5555;59.622;16.556;2022-11-15T12:32:31;6.90;99.90
11005;DHT22;5555;59.622;16.556;2022-11-15T12:34:59;6.90;99.90
11005;DHT22;5555;59.622;16.556;2022-11-15T12:43:29;6.90;99.90
11005;DHT22;5555;59.622;16.556;2022-11-15T12:45:47;6.90;99.90
11005;DHT22;5555;59.622;16.556;2022-11-15T12:53:26;6.90;99.90
11005;DHT22;5555;59.622;16.556;2022-11-15T13:01:10;7.00;99.90
11005;DHT22;5555;59.622;16.556;2022-11-15T13:03:36;7.00;99.90
11005;DHT22;5555;59.622;16.556;2022-11-15T13:06:42;7.00;99.90
11005;DHT22;5555;59.622;16.556;2022-11-15T13:12:07;7.10;99.90
11005;DHT22;5555;59.622;16.556;2022-11-15T13:19:46;7.00;99.90
11005;DHT22;5555;59.622;16.556;2022-11-15T13:22:12;6.90;99.90
11005;DHT22;5555;59.622;16.556;2022-11-15T13:24:57;6.90;99.90
11005;DHT22;5555;59.622;16.556;2022-11-15T13:27:25;6.90;99.90
11005;DHT22;5555;59.622;16.556;2022-11-15T13:29:51;6.80;99.90
11005;DHT22;5555;59.622;16.556;2022-11-15T13:32:18;6.80;99.90
11005;DHT22;5555;59.622;16.556;2022-11-15T13:34:46;6.80;99.90
11005;DHT22;5555;59.622;16.556;2022-11-15T13:39:50;6.70;99.90
11005;DHT22;5555;59.622;16.556;2022-11-15T13:42:18;6.70;99.90
11005;DHT22;5555;59.622;16.556;2022-11-15T13:44:58;6.60;99.90
11005;DHT22;5555;59.622;16.556;2022-11-15T13:47:28;6.60;99.90
11005;DHT22;5555;59.622;16.556;2022-11-15T13:49:57;6.50;99.90
11005;DHT22;5555;59.622;16.556;2022-11-15T13:52:27;6.50;99.90
11005;DHT22;5555;59.622;16.556;2022-11-15T13:55:01;6.50;99.90
11005;DHT22;5555;59.622;16.556;2022-11-15T13:57:53;6.50;99.90
11005;DHT22;5555;59.622;16.556;2022-11-15T14:00:42;6.50;99.90
11005;DHT22;5555;59.622;16.556;2022-11-15T14:03:21;6.50;99.90
11005;DHT22;5555;59.622;16.556;2022-11-15T14:06:06;6.40;99.90
11005;DHT22;5555;59.622;16.556;2022-11-15T14:08:41;6.40;99.90
11005;DHT22;5555;59.622;16.556;2022-11-15T14:11:16;6.30;99.90
11005;DHT22;5555;59.622;16.556;2022-11-15T14:14:19;6.20;99.90
11005;DHT22;5555;59.622;16.556;2022-11-15T14:16:45;6.20;99.90
11005;DHT22;5555;59.622;16.556;2022-11-15T14:19:33;6.10;99.90
11005;DHT22;5555;59.622;16.556;2022-11-15T14:22:23;6.10;99.90
11005;DHT22;5555;59.622;16.556;2022-11-15T14:27:44;6.00;99.90
11005;DHT22;5555;59.622;16.556;2022-11-15T14:30:14;5.90;99.90
11005;DHT22;5555;59.622;16.556;2022-11-15T14:32:47;5.90;99.90
11005;DHT22;5555;59.622;16.556;2022-11-15T14:35:16;6.00;99.90
11005;DHT22;5555;59.622;16.556;2022-11-15T14:37:43;6.00;99.90
11005;DHT22;5555;59.622;16.556;2022-11-15T14:40:11;6.00;99.90
11005;DHT22;5555;59.622;16.556;2022-11-15T14:42:37;6.00;99.90
11005;DHT22;5555;59.622;16.556;2022-11-15T14:45:04;5.90;99.90
11005;DHT22;5555;59.622;16.556;2022-11-15T14:47:34;5.90;99.90
11005;DHT22;5555;59.622;16.556;2022-11-15T14:49:59;5.90;99.90
11005;DHT22;5555;59.622;16.556;2022-11-15T14:52:30;5.90;99.90
11005;DHT22;5555;59.622;16.556;2022-11-15T14:54:59;5.90;99.90
11005;DHT22;5555;59.622;16.556;2022-11-15T14:57:26;5.90;99.90
11005;DHT22;5555;59.622;16.556;2022-11-15T14:59:52;5.80;99.90
11005;DHT22;5555;59.622;16.556;2022-11-15T15:02:23;5.80;99.90
11005;DHT22;5555;59.622;16.556;2022-11-15T15:04:50;5.90;99.90
11005;DHT22;5555;59.622;16.556;2022-11-15T15:07:16;5.80;99.90
11005;DHT22;5555;59.622;16.556;2022-11-15T15:09:42;5.80;99.90
11005;DHT22;5555;59.622;16.556;2022-11-15T15:12:21;5.80;99.90
11005;DHT22;5555;59.622;16.556;2022-11-15T15:14:49;5.70;99.90
11005;DHT22;5555;59.622;16.556;2022-11-15T15:17:15;5.80;99.90
11005;DHT22;5555;59.622;16.556;2022-11-15T15:19:41;5.80;99.90
11005;DHT22;5555;59.622;16.556;2022-11-15T15:22:16;5.80;99.90
11005;DHT22;5555;59.622;16.556;2022-11-15T15:24:46;5.80;99.90
11005;DHT22;5555;59.622;16.556;2022-11-15T15:27:12;5.70;99.90
11005;DHT22;5555;59.622;16.556;2022-11-15T15:29:38;5.70;99.90
11005;DHT22;5555;59.622;16.556;2022-11-15T15:32:04;5.70;99.90
11005;DHT22;5555;59.622;16.556;2022-11-15T15:34:31;5.70;99.90
11005;DHT22;5555;59.622;16.556;2022-11-15T15:37:23;5.60;99.90
11005;DHT22;5555;59.622;16.556;2022-11-15T15:39:50;5.60;99.90
11005;DHT22;5555;59.622;16.556;2022-11-15T15:42:16;5.60;99.90
11005;DHT22;5555;59.622;16.556;2022-11-15T15:44:41;5.50;99.90
11005;DHT22;5555;59.622;16.556;2022-11-15T15:47:18;5.40;99.90
11005;DHT22;5555;59.622;16.556;2022-11-15T15:49:44;5.30;99.90
11005;DHT22;5555;59.622;16.556;2022-11-15T15:52:10;5.30;99.90
11005;DHT22;5555;59.622;16.556;2022-11-15T15:54:37;5.20;99.90
11005;DHT22;5555;59.622;16.556;2022-11-15T15:57:03;5.20;99.90
11005;DHT22;5555;59.622;16.556;2022-11-15T15:59:30;5.20;99.90
11005;DHT22;5555;59.622;16.556;2022-11-15T16:01:55;5.10;99.90
11005;DHT22;5555;59.622;16.556;2022-11-15T16:04:21;5.00;99.90
11005;DHT22;5555;59.622;16.556;2022-11-15T16:06:47;4.90;99.90
11005;DHT22;5555;59.622;16.556;2022-11-15T16:09:16;4.80;99.90
11005;DHT22;5555;59.622;16.556;2022-11-15T16:11:44;4.80;99.90
11005;DHT22;5555;59.622;16.556;2022-11-15T16:14:10;4.80;99.90
11005;DHT22;5555;59.622;16.556;2022-11-15T16:16:37;4.80;99.90
11005;DHT22;5555;59.622;16.556;2022-11-15T16:19:04;4.70;99.90
11005;DHT22;5555;59.622;16.556;2022-11-15T16:21:30;4.80;99.90
11005;DHT22;5555;59.622;16.556;2022-11-15T16:23:56;4.90;99.90
11005;DHT22;5555;59.622;16.556;2022-11-15T16:26:24;4.90;99.90
11005;DHT22;5555;59.622;16.556;2022-11-15T16:28:51;4.90;99.90
11005;DHT22;5555;59.622;16.556;2022-11-15T16:31:17;4.90;99.90
11005;DHT22;5555;59.622;16.556;2022-11-15T16:33:45;4.90;99.90
11005;DHT22;5555;59.622;16.556;2022-11-15T16:36:23;4.90;99.90
11005;DHT22;5555;59.622;16.556;2022-11-15T16:38:50;4.90;99.90
11005;DHT22;5555;59.622;16.556;2022-11-15T16:41:16;5.00;99.90
11005;DHT22;5555;59.622;16.556;2022-11-15T16:43:46;5.00;99.90
11005;DHT22;5555;59.622;16.556;2022-11-15T16:46:21;5.00;99.90
11005;DHT22;5555;59.622;16.556;2022-11-15T16:48:47;5.00;99.90
11005;DHT22;5555;59.622;16.556;2022-11-15T16:51:13;5.00;99.90
11005;DHT22;5555;59.622;16.556;2022-11-15T16:53:39;5.10;99.90
11005;DHT22;5555;59.622;16.556;2022-11-15T16:58:42;5.10;99.90
11005;DHT22;5555;59.622;16.556;2022-11-15T17:01:15;5.10;99.90
11005;DHT22;5555;59.622;16.556;2022-11-15T17:03:41;5.10;99.90
11005;DHT22;5555;59.622;16.556;2022-11-15T17:06:08;5.10;99.90
11005;DHT22;5555;59.622;16.556;2022-11-15T17:08:34;5.10;99.90
11005;DHT22;5555;59.622;16.556;2022-11-15T17:11:04;5.10;99.90
11005;DHT22;5555;59.622;16.556;2022-11-15T17:13:30;5.10;99.90
11005;DHT22;5555;59.622;16.556;2022-11-15T17:16:09;5.10;99.90
11005;DHT22;5555;59.622;16.556;2022-11-15T17:18:35;5.20;99.90
11005;DHT22;5555;59.622;16.556;2022-11-15T17:21:13;5.20;99.90
11005;DHT22;5555;59.622;16.556;2022-11-15T17:23:39;5.30;99.90
11005;DHT22;5555;59.622;16.556;2022-11-15T17:26:05;5.20;99.90
11005;DHT22;5555;59.622;16.556;2022-11-15T17:28:32;5.20;99.90
11005;DHT22;5555;59.622;16.556;2022-11-15T17:30:58;5.20;99.90
11005;DHT22;5555;59.622;16.556;2022-11-15T17:33:24;5.30;99.90
11005;DHT22;5555;59.622;16.556;2022-11-15T17:36:00;5.30;99.90
11005;DHT22;5555;59.622;16.556;2022-11-15T17:38:27;5.30;99.90
11005;DHT22;5555;59.622;16.556;2022-11-15T17:41:04;5.30;99.90
11005;DHT22;5555;59.622;16.556;2022-11-15T17:43:32;5.30;99.90
11005;DHT22;5555;59.622;16.556;2022-11-15T17:45:59;5.30;99.90
11005;DHT22;5555;59.622;16.556;2022-11-15T17:48:29;5.30;99.90